sensor_id;sensor_type;location;lat;lon;timestamp;P1;durP1;ratioP1;P2;durP2;ratioP2
55063;SDS011;40963;52.168;21.296;2024-03-02T00:00:05;38.90;;;16.42;;
55063;SDS011;40963;52.168;21.296;2024-03-02T00:02:46;42.78;;;16.35;;
55063;SDS011;40963;52.168;21.296;2024-03-02T00:05:17;35.60;;;15.50;;
55063;SDS011;40963;52.168;21.296;2024-03-02T00:07:53;37.00;;;15.00;;
55063;SDS011;40963;52.168;21.296;2024-03-02T00:10:26;38.50;;;16.05;;
55063;SDS011;40963;52.168;21.296;2024-03-02T00:12:56;36.47;;;15.90;;
55063;SDS011;40963;52.168;21.296;2024-03-02T00:15:29;33.70;;;15.88;;
55063;SDS011;40963;52.168;21.296;2024-03-02T00:18:02;36.83;;;13.75;;
55063;SDS011;40963;52.168;21.296;2024-03-02T00:20:31;43.13;;;15.18;;
55063;SDS011;40963;52.168;21.296;2024-03-02T00:23:03;32.58;;;14.57;;
55063;SDS011;40963;52.168;21.296;2024-03-02T00:25:41;41.28;;;15.15;;
55063;SDS011;40963;52.168;21.296;2024-03-02T00:28:25;31.50;;;14.23;;
55063;SDS011;40963;52.168;21.296;2024-03-02T00:33:37;36.55;;;14.80;;
55063;SDS011;40963;52.168;21.296;2024-03-02T00:36:15;37.35;;;14.93;;
55063;SDS011;40963;52.168;21.296;2024-03-02T00:38:48;52.23;;;18.27;;
55063;SDS011;40963;52.168;21.296;2024-03-02T00:41:28;43.95;;;17.95;;
55063;SDS011;40963;52.168;21.296;2024-03-02T00:44:02;36.03;;;14.50;;
55063;SDS011;40963;52.168;21.296;2024-03-02T00:46:34;37.08;;;14.32;;
55063;SDS011;40963;52.168;21.296;2024-03-02T00:49:01;33.28;;;14.18;;
55063;SDS011;40963;52.168;21.296;2024-03-02T00:51:31;60.97;;;19.25;;
55063;SDS011;40963;52.168;21.296;2024-03-02T00:54:01;44.80;;;15.98;;
55063;SDS011;40963;52.168;21.296;2024-03-02T00:56:29;36.65;;;14.13;;
55063;SDS011;40963;52.168;21.296;2024-03-02T00:58:55;33.13;;;14.70;;
55063;SDS011;40963;52.168;21.296;2024-03-02T01:01:21;33.25;;;14.57;;
55063;SDS011;40963;52.168;21.296;2024-03-02T01:03:47;34.47;;;15.63;;
55063;SDS011;40963;52.168;21.296;2024-03-02T01:06:14;42.45;;;15.18;;
55063;SDS011;40963;52.168;21.296;2024-03-02T01:08:40;32.35;;;13.90;;
55063;SDS011;40963;52.168;21.296;2024-03-02T01:11:05;38.80;;;15.65;;
55063;SDS011;40963;52.168;21.296;2024-03-02T01:13:31;32.65;;;14.70;;
55063;SDS011;40963;52.168;21.296;2024-03-02T01:15:57;32.42;;;14.45;;
55063;SDS011;40963;52.168;21.296;2024-03-02T01:18:23;27.33;;;13.80;;
55063;SDS011;40963;52.168;21.296;2024-03-02T01:20:49;30.25;;;13.00;;
55063;SDS011;40963;52.168;21.296;2024-03-02T01:23:20;36.58;;;14.27;;
55063;SDS011;40963;52.168;21.296;2024-03-02T01:25:49;29.77;;;13.20;;
55063;SDS011;40963;52.168;21.296;2024-03-02T01:28:15;29.48;;;13.82;;
55063;SDS011;40963;52.168;21.296;2024-03-02T01:30:41;35.25;;;13.82;;
55063;SDS011;40963;52.168;21.296;2024-03-02T01:33:07;32.42;;;13.68;;
55063;SDS011;40963;52.168;21.296;2024-03-02T01:35:33;33.40;;;15.13;;
55063;SDS011;40963;52.168;21.296;2024-03-02T01:37:59;25.85;;;12.05;;
55063;SDS011;40963;52.168;21.296;2024-03-02T01:40:25;29.77;;;12.35;;
55063;SDS011;40963;52.168;21.296;2024-03-02T01:42:52;25.42;;;13.25;;
55063;SDS011;40963;52.168;21.296;2024-03-02T01:45:23;32.25;;;13.20;;
55063;SDS011;40963;52.168;21.296;2024-03-02T01:47:48;24.85;;;12.18;;
55063;SDS011;40963;52.168;21.296;2024-03-02T01:50:15;32.38;;;13.38;;
55063;SDS011;40963;52.168;21.296;2024-03-02T01:52:49;31.65;;;13.50;;
55063;SDS011;40963;52.168;21.296;2024-03-02T01:55:14;28.25;;;12.73;;
55063;SDS011;40963;52.168;21.296;2024-03-02T01:57:40;28.52;;;13.15;;
55063;SDS011;40963;52.168;21.296;2024-03-02T02:00:06;26.65;;;12.52;;
55063;SDS011;40963;52.168;21.296;2024-03-02T02:02:32;29.27;;;12.98;;
55063;SDS011;40963;52.168;21.296;2024-03-02T02:04:58;27.83;;;12.52;;
55063;SDS011;40963;52.168;21.296;2024-03-02T02:07:23;29.23;;;13.50;;
55063;SDS011;40963;52.168;21.296;2024-03-02T02:09:49;29.20;;;13.98;;
55063;SDS011;40963;52.168;21.296;2024-03-02T02:12:14;25.13;;;12.52;;
55063;SDS011;40963;52.168;21.296;2024-03-02T02:14:46;27.20;;;12.65;;
55063;SDS011;40963;52.168;21.296;2024-03-02T02:17:14;23.98;;;11.75;;
55063;SDS011;40963;52.168;21.296;2024-03-02T02:19:40;21.35;;;11.27;;
55063;SDS011;40963;52.168;21.296;2024-03-02T02:22:06;30.17;;;12.50;;
55063;SDS011;40963;52.168;21.296;2024-03-02T02:24:32;24.75;;;12.30;;
55063;SDS011;40963;52.168;21.296;2024-03-02T02:26:57;28.25;;;12.05;;
55063;SDS011;40963;52.168;21.296;2024-03-02T02:29:23;25.65;;;11.43;;
55063;SDS011;40963;52.168;21.296;2024-03-02T02:31:48;26.15;;;11.98;;
55063;SDS011;40963;52.168;21.296;2024-03-02T02:34:14;31.73;;;11.63;;
55063;SDS011;40963;52.168;21.296;2024-03-02T02:36:40;28.45;;;12.20;;
55063;SDS011;40963;52.168;21.296;2024-03-02T02:39:08;28.50;;;12.25;;
55063;SDS011;40963;52.168;21.296;2024-03-02T02:41:36;25.23;;;12.35;;
55063;SDS011;40963;52.168;21.296;2024-03-02T02:44:02;29.65;;;11.27;;
55063;SDS011;40963;52.168;21.296;2024-03-02T02:46:28;26.30;;;12.25;;
55063;SDS011;40963;52.168;21.296;2024-03-02T02:48:54;26.50;;;11.07;;
55063;SDS011;40963;52.168;21.296;2024-03-02T02:51:19;28.52;;;12.65;;
55063;SDS011;40963;52.168;21.296;2024-03-02T02:53:45;25.67;;;12.32;;
55063;SDS011;40963;52.168;21.296;2024-03-02T02:56:11;25.35;;;11.32;;
55063;SDS011;40963;52.168;21.296;2024-03-02T02:58:37;31.60;;;14.00;;
55063;SDS011;40963;52.168;21.296;2024-03-02T03:01:02;28.30;;;12.55;;
55063;SDS011;40963;52.168;21.296;2024-03-02T03:03:28;29.67;;;11.75;;
55063;SDS011;40963;52.168;21.296;2024-03-02T03:05:54;32.35;;;13.18;;
55063;SDS011;40963;52.168;21.296;2024-03-02T03:08:20;30.05;;;13.25;;
55063;SDS011;40963;52.168;21.296;2024-03-02T03:10:45;30.42;;;13.20;;
55063;SDS011;40963;52.168;21.296;2024-03-02T03:13:11;27.65;;;11.32;;
55063;SDS011;40963;52.168;21.296;2024-03-02T03:15:37;30.58;;;12.15;;
55063;SDS011;40963;52.168;21.296;2024-03-02T03:18:03;24.25;;;10.85;;
55063;SDS011;40963;52.168;21.296;2024-03-02T03:20:29;34.47;;;13.20;;
55063;SDS011;40963;52.168;21.296;2024-03-02T03:22:55;33.45;;;12.60;;
55063;SDS011;40963;52.168;21.296;2024-03-02T03:25:21;27.90;;;11.95;;
55063;SDS011;40963;52.168;21.296;2024-03-02T03:27:47;28.88;;;12.25;;
55063;SDS011;40963;52.168;21.296;2024-03-02T03:30:13;27.80;;;12.52;;
55063;SDS011;40963;52.168;21.296;2024-03-02T03:32:39;28.92;;;11.82;;
55063;SDS011;40963;52.168;21.296;2024-03-02T03:35:05;28.48;;;13.20;;
55063;SDS011;40963;52.168;21.296;2024-03-02T03:37:31;32.85;;;12.85;;
55063;SDS011;40963;52.168;21.296;2024-03-02T03:40:01;29.15;;;12.20;;
55063;SDS011;40963;52.168;21.296;2024-03-02T03:42:27;31.17;;;13.82;;
55063;SDS011;40963;52.168;21.296;2024-03-02T03:44:53;25.33;;;11.93;;
55063;SDS011;40963;52.168;21.296;2024-03-02T03:47:19;25.80;;;12.63;;
55063;SDS011;40963;52.168;21.296;2024-03-02T03:49:45;30.27;;;13.07;;
55063;SDS011;40963;52.168;21.296;2024-03-02T03:52:10;32.28;;;13.40;;
55063;SDS011;40963;52.168;21.296;2024-03-02T03:54:36;32.08;;;13.85;;
55063;SDS011;40963;52.168;21.296;2024-03-02T03:57:03;29.75;;;12.68;;
55063;SDS011;40963;52.168;21.296;2024-03-02T03:59:29;33.65;;;12.40;;
55063;SDS011;40963;52.168;21.296;2024-03-02T04:01:54;30.58;;;12.23;;
55063;SDS011;40963;52.168;21.296;2024-03-02T04:04:20;32.92;;;12.95;;
55063;SDS011;40963;52.168;21.296;2024-03-02T04:06:46;30.63;;;11.05;;
55063;SDS011;40963;52.168;21.296;2024-03-02T04:09:12;30.00;;;12.05;;
55063;SDS011;40963;52.168;21.296;2024-03-02T04:11:37;32.35;;;13.23;;
55063;SDS011;40963;52.168;21.296;2024-03-02T04:14:04;34.85;;;13.52;;
55063;SDS011;40963;52.168;21.296;2024-03-02T04:16:31;28.92;;;12.18;;
55063;SDS011;40963;52.168;21.296;2024-03-02T04:18:56;31.58;;;12.35;;
55063;SDS011;40963;52.168;21.296;2024-03-02T04:21:22;33.95;;;14.02;;
55063;SDS011;40963;52.168;21.296;2024-03-02T04:23:48;30.63;;;12.70;;
55063;SDS011;40963;52.168;21.296;2024-03-02T04:26:13;32.45;;;13.02;;
55063;SDS011;40963;52.168;21.296;2024-03-02T04:28:40;37.50;;;12.23;;
55063;SDS011;40963;52.168;21.296;2024-03-02T04:31:05;50.25;;;15.98;;
55063;SDS011;40963;52.168;21.296;2024-03-02T04:33:31;34.55;;;14.18;;
55063;SDS011;40963;52.168;21.296;2024-03-02T04:35:56;28.88;;;12.13;;
55063;SDS011;40963;52.168;21.296;2024-03-02T04:38:22;26.95;;;12.02;;
55063;SDS011;40963;52.168;21.296;2024-03-02T04:40:48;30.35;;;12.43;;
55063;SDS011;40963;52.168;21.296;2024-03-02T04:43:14;34.42;;;12.98;;
55063;SDS011;40963;52.168;21.296;2024-03-02T04:45:41;32.10;;;12.02;;
55063;SDS011;40963;52.168;21.296;2024-03-02T04:48:07;43.70;;;15.65;;
55063;SDS011;40963;52.168;21.296;2024-03-02T04:50:33;35.03;;;14.55;;
55063;SDS011;40963;52.168;21.296;2024-03-02T04:52:59;32.72;;;13.32;;
55063;SDS011;40963;52.168;21.296;2024-03-02T04:55:24;35.28;;;12.43;;
55063;SDS011;40963;52.168;21.296;2024-03-02T04:58:10;37.77;;;13.30;;
55063;SDS011;40963;52.168;21.296;2024-03-02T05:00:35;30.90;;;11.63;;
55063;SDS011;40963;52.168;21.296;2024-03-02T05:03:01;27.67;;;12.70;;
55063;SDS011;40963;52.168;21.296;2024-03-02T05:05:28;29.90;;;12.98;;
55063;SDS011;40963;52.168;21.296;2024-03-02T05:07:53;34.35;;;13.95;;
55063;SDS011;40963;52.168;21.296;2024-03-02T05:10:19;31.30;;;12.57;;
55063;SDS011;40963;52.168;21.296;2024-03-02T05:12:45;32.08;;;13.77;;
55063;SDS011;40963;52.168;21.296;2024-03-02T05:15:11;38.78;;;15.30;;
55063;SDS011;40963;52.168;21.296;2024-03-02T05:17:40;28.73;;;13.25;;
55063;SDS011;40963;52.168;21.296;2024-03-02T05:20:10;29.90;;;12.73;;
55063;SDS011;40963;52.168;21.296;2024-03-02T05:22:36;36.80;;;13.02;;
55063;SDS011;40963;52.168;21.296;2024-03-02T05:25:02;31.67;;;12.52;;
55063;SDS011;40963;52.168;21.296;2024-03-02T05:27:29;34.08;;;12.45;;
55063;SDS011;40963;52.168;21.296;2024-03-02T05:29:55;43.05;;;14.90;;
55063;SDS011;40963;52.168;21.296;2024-03-02T05:32:21;42.72;;;16.05;;
55063;SDS011;40963;52.168;21.296;2024-03-02T05:34:46;34.45;;;12.90;;
55063;SDS011;40963;52.168;21.296;2024-03-02T05:37:12;26.83;;;13.05;;
55063;SDS011;40963;52.168;21.296;2024-03-02T05:39:37;30.17;;;12.65;;
55063;SDS011;40963;52.168;21.296;2024-03-02T05:42:03;35.38;;;11.82;;
55063;SDS011;40963;52.168;21.296;2024-03-02T05:44:29;27.23;;;11.13;;
55063;SDS011;40963;52.168;21.296;2024-03-02T05:46:55;36.45;;;13.52;;
55063;SDS011;40963;52.168;21.296;2024-03-02T05:49:20;29.35;;;11.60;;
55063;SDS011;40963;52.168;21.296;2024-03-02T05:51:46;30.27;;;11.55;;
55063;SDS011;40963;52.168;21.296;2024-03-02T05:54:12;26.45;;;10.90;;
55063;SDS011;40963;52.168;21.296;2024-03-02T05:56:38;28.80;;;12.13;;
55063;SDS011;40963;52.168;21.296;2024-03-02T05:59:03;29.77;;;12.55;;
55063;SDS011;40963;52.168;21.296;2024-03-02T06:01:44;25.35;;;11.95;;
55063;SDS011;40963;52.168;21.296;2024-03-02T06:04:17;28.02;;;12.27;;
55063;SDS011;40963;52.168;21.296;2024-03-02T06:06:43;33.88;;;12.52;;
55063;SDS011;40963;52.168;21.296;2024-03-02T06:09:09;26.08;;;11.60;;
55063;SDS011;40963;52.168;21.296;2024-03-02T06:11:37;25.55;;;11.05;;
55063;SDS011;40963;52.168;21.296;2024-03-02T06:14:04;30.00;;;11.80;;
55063;SDS011;40963;52.168;21.296;2024-03-02T06:16:31;28.83;;;11.93;;
55063;SDS011;40963;52.168;21.296;2024-03-02T06:18:57;36.70;;;12.43;;
55063;SDS011;40963;52.168;21.296;2024-03-02T06:21:23;33.67;;;12.65;;
55063;SDS011;40963;52.168;21.296;2024-03-02T06:23:49;35.33;;;11.93;;
55063;SDS011;40963;52.168;21.296;2024-03-02T06:26:15;35.65;;;14.65;;
55063;SDS011;40963;52.168;21.296;2024-03-02T06:28:41;33.95;;;12.90;;
55063;SDS011;40963;52.168;21.296;2024-03-02T06:31:06;30.30;;;12.07;;
55063;SDS011;40963;52.168;21.296;2024-03-02T06:33:32;35.13;;;12.45;;
55063;SDS011;40963;52.168;21.296;2024-03-02T06:35:57;61.25;;;16.27;;
55063;SDS011;40963;52.168;21.296;2024-03-02T06:38:23;37.55;;;14.77;;
55063;SDS011;40963;52.168;21.296;2024-03-02T06:40:49;27.30;;;11.05;;
55063;SDS011;40963;52.168;21.296;2024-03-02T06:43:14;24.85;;;10.60;;
55063;SDS011;40963;52.168;21.296;2024-03-02T06:45:40;27.95;;;10.80;;
55063;SDS011;40963;52.168;21.296;2024-03-02T06:48:06;24.20;;;10.05;;
55063;SDS011;40963;52.168;21.296;2024-03-02T06:50:32;26.58;;;11.32;;
55063;SDS011;40963;52.168;21.296;2024-03-02T06:52:57;29.95;;;10.23;;
55063;SDS011;40963;52.168;21.296;2024-03-02T06:55:23;28.88;;;11.52;;
55063;SDS011;40963;52.168;21.296;2024-03-02T06:57:51;26.65;;;10.35;;
55063;SDS011;40963;52.168;21.296;2024-03-02T07:00:17;31.17;;;13.27;;
55063;SDS011;40963;52.168;21.296;2024-03-02T07:02:44;30.17;;;11.93;;
55063;SDS011;40963;52.168;21.296;2024-03-02T07:05:10;31.95;;;13.57;;
55063;SDS011;40963;52.168;21.296;2024-03-02T07:07:36;38.03;;;13.82;;
55063;SDS011;40963;52.168;21.296;2024-03-02T07:10:02;25.88;;;10.40;;
55063;SDS011;40963;52.168;21.296;2024-03-02T07:12:29;47.95;;;15.65;;
55063;SDS011;40963;52.168;21.296;2024-03-02T07:14:56;37.95;;;14.45;;
55063;SDS011;40963;52.168;21.296;2024-03-02T07:17:27;30.98;;;12.57;;
55063;SDS011;40963;52.168;21.296;2024-03-02T07:19:53;35.17;;;11.57;;
55063;SDS011;40963;52.168;21.296;2024-03-02T07:22:19;35.42;;;13.50;;
55063;SDS011;40963;52.168;21.296;2024-03-02T07:24:44;27.10;;;10.52;;
55063;SDS011;40963;52.168;21.296;2024-03-02T07:27:14;25.77;;;10.48;;
55063;SDS011;40963;52.168;21.296;2024-03-02T07:29:41;27.08;;;11.80;;
55063;SDS011;40963;52.168;21.296;2024-03-02T07:32:08;30.73;;;11.43;;
55063;SDS011;40963;52.168;21.296;2024-03-02T07:34:34;28.10;;;11.30;;
55063;SDS011;40963;52.168;21.296;2024-03-02T07:37:00;31.80;;;11.13;;
55063;SDS011;40963;52.168;21.296;2024-03-02T07:39:26;34.00;;;12.02;;
55063;SDS011;40963;52.168;21.296;2024-03-02T07:41:52;30.15;;;12.88;;
55063;SDS011;40963;52.168;21.296;2024-03-02T07:44:18;39.08;;;14.00;;
55063;SDS011;40963;52.168;21.296;2024-03-02T07:46:44;31.45;;;13.95;;
55063;SDS011;40963;52.168;21.296;2024-03-02T07:49:17;31.00;;;12.10;;
55063;SDS011;40963;52.168;21.296;2024-03-02T07:51:44;34.60;;;12.55;;
55063;SDS011;40963;52.168;21.296;2024-03-02T07:54:09;50.38;;;15.02;;
55063;SDS011;40963;52.168;21.296;2024-03-02T07:56:35;31.23;;;11.73;;
55063;SDS011;40963;52.168;21.296;2024-03-02T07:59:01;31.02;;;11.75;;
55063;SDS011;40963;52.168;21.296;2024-03-02T08:01:31;42.30;;;15.32;;
55063;SDS011;40963;52.168;21.296;2024-03-02T08:03:57;25.75;;;12.10;;
55063;SDS011;40963;52.168;21.296;2024-03-02T08:06:26;32.85;;;12.30;;
55063;SDS011;40963;52.168;21.296;2024-03-02T08:08:56;31.85;;;13.27;;
55063;SDS011;40963;52.168;21.296;2024-03-02T08:11:23;34.75;;;11.77;;
55063;SDS011;40963;52.168;21.296;2024-03-02T08:13:49;29.98;;;12.05;;
55063;SDS011;40963;52.168;21.296;2024-03-02T08:16:15;33.88;;;13.50;;
55063;SDS011;40963;52.168;21.296;2024-03-02T08:18:43;27.40;;;11.20;;
55063;SDS011;40963;52.168;21.296;2024-03-02T08:21:09;27.40;;;11.45;;
55063;SDS011;40963;52.168;21.296;2024-03-02T08:23:35;27.02;;;12.50;;
55063;SDS011;40963;52.168;21.296;2024-03-02T08:26:00;30.17;;;12.98;;
55063;SDS011;40963;52.168;21.296;2024-03-02T08:28:26;29.98;;;12.05;;
55063;SDS011;40963;52.168;21.296;2024-03-02T08:30:52;30.30;;;11.60;;
55063;SDS011;40963;52.168;21.296;2024-03-02T08:33:18;40.30;;;12.38;;
55063;SDS011;40963;52.168;21.296;2024-03-02T08:35:43;29.42;;;10.57;;
55063;SDS011;40963;52.168;21.296;2024-03-02T08:38:09;28.05;;;12.13;;
55063;SDS011;40963;52.168;21.296;2024-03-02T08:40:35;21.13;;;11.07;;
55063;SDS011;40963;52.168;21.296;2024-03-02T08:43:00;50.92;;;15.43;;
55063;SDS011;40963;52.168;21.296;2024-03-02T08:45:26;41.58;;;14.48;;
55063;SDS011;40963;52.168;21.296;2024-03-02T08:47:51;24.35;;;10.77;;
55063;SDS011;40963;52.168;21.296;2024-03-02T08:50:18;29.60;;;12.18;;
55063;SDS011;40963;52.168;21.296;2024-03-02T08:52:43;33.28;;;11.70;;
55063;SDS011;40963;52.168;21.296;2024-03-02T08:55:09;31.13;;;11.93;;
55063;SDS011;40963;52.168;21.296;2024-03-02T08:57:36;34.38;;;12.93;;
55063;SDS011;40963;52.168;21.296;2024-03-02T09:00:02;29.40;;;11.98;;
55063;SDS011;40963;52.168;21.296;2024-03-02T09:02:30;27.02;;;11.73;;
55063;SDS011;40963;52.168;21.296;2024-03-02T09:04:56;25.77;;;11.88;;
55063;SDS011;40963;52.168;21.296;2024-03-02T09:07:21;35.95;;;13.57;;
55063;SDS011;40963;52.168;21.296;2024-03-02T09:09:47;30.20;;;12.55;;
55063;SDS011;40963;52.168;21.296;2024-03-02T09:12:12;31.35;;;13.38;;
55063;SDS011;40963;52.168;21.296;2024-03-02T09:14:38;38.33;;;15.57;;
55063;SDS011;40963;52.168;21.296;2024-03-02T09:17:04;36.58;;;15.07;;
55063;SDS011;40963;52.168;21.296;2024-03-02T09:19:29;35.75;;;13.77;;
55063;SDS011;40963;52.168;21.296;2024-03-02T09:21:55;43.67;;;15.13;;
55063;SDS011;40963;52.168;21.296;2024-03-02T09:24:21;36.92;;;13.80;;
55063;SDS011;40963;52.168;21.296;2024-03-02T09:26:47;36.13;;;13.20;;
55063;SDS011;40963;52.168;21.296;2024-03-02T09:29:12;33.15;;;15.00;;
55063;SDS011;40963;52.168;21.296;2024-03-02T09:31:41;37.35;;;14.70;;
55063;SDS011;40963;52.168;21.296;2024-03-02T09:34:08;36.70;;;13.10;;
55063;SDS011;40963;52.168;21.296;2024-03-02T09:36:34;33.53;;;15.55;;
55063;SDS011;40963;52.168;21.296;2024-03-02T09:39:02;29.80;;;14.23;;
55063;SDS011;40963;52.168;21.296;2024-03-02T09:41:28;33.28;;;12.77;;
55063;SDS011;40963;52.168;21.296;2024-03-02T09:43:54;39.75;;;14.82;;
55063;SDS011;40963;52.168;21.296;2024-03-02T09:46:20;35.85;;;14.32;;
55063;SDS011;40963;52.168;21.296;2024-03-02T09:48:46;45.75;;;17.50;;
55063;SDS011;40963;52.168;21.296;2024-03-02T09:51:11;40.33;;;16.35;;
55063;SDS011;40963;52.168;21.296;2024-03-02T09:53:39;38.10;;;14.73;;
55063;SDS011;40963;52.168;21.296;2024-03-02T09:56:04;49.97;;;18.85;;
55063;SDS011;40963;52.168;21.296;2024-03-02T09:58:30;39.90;;;15.55;;
55063;SDS011;40963;52.168;21.296;2024-03-02T10:00:56;38.25;;;16.88;;
55063;SDS011;40963;52.168;21.296;2024-03-02T10:03:24;40.92;;;17.13;;
55063;SDS011;40963;52.168;21.296;2024-03-02T10:05:51;43.47;;;16.98;;
55063;SDS011;40963;52.168;21.296;2024-03-02T10:08:17;53.97;;;18.98;;
55063;SDS011;40963;52.168;21.296;2024-03-02T10:10:43;47.22;;;16.38;;
55063;SDS011;40963;52.168;21.296;2024-03-02T10:13:09;49.78;;;20.10;;
55063;SDS011;40963;52.168;21.296;2024-03-02T10:15:36;50.20;;;20.42;;
55063;SDS011;40963;52.168;21.296;2024-03-02T10:18:05;51.17;;;18.48;;
55063;SDS011;40963;52.168;21.296;2024-03-02T10:20:36;34.45;;;15.82;;
55063;SDS011;40963;52.168;21.296;2024-03-02T10:23:09;47.03;;;18.10;;
55063;SDS011;40963;52.168;21.296;2024-03-02T10:25:42;39.38;;;17.35;;
55063;SDS011;40963;52.168;21.296;2024-03-02T10:28:09;39.47;;;17.00;;
55063;SDS011;40963;52.168;21.296;2024-03-02T10:30:34;45.70;;;18.35;;
55063;SDS011;40963;52.168;21.296;2024-03-02T10:33:01;38.35;;;15.90;;
55063;SDS011;40963;52.168;21.296;2024-03-02T10:35:27;43.13;;;17.95;;
55063;SDS011;40963;52.168;21.296;2024-03-02T10:37:53;43.50;;;17.73;;
55063;SDS011;40963;52.168;21.296;2024-03-02T10:40:22;43.30;;;17.00;;
55063;SDS011;40963;52.168;21.296;2024-03-02T10:42:49;50.80;;;20.05;;
55063;SDS011;40963;52.168;21.296;2024-03-02T10:45:16;47.55;;;19.92;;
55063;SDS011;40963;52.168;21.296;2024-03-02T10:47:42;44.63;;;18.95;;
55063;SDS011;40963;52.168;21.296;2024-03-02T10:50:09;39.30;;;19.00;;
55063;SDS011;40963;52.168;21.296;2024-03-02T10:52:35;47.10;;;19.65;;
55063;SDS011;40963;52.168;21.296;2024-03-02T10:55:02;42.55;;;17.38;;
55063;SDS011;40963;52.168;21.296;2024-03-02T10:57:32;37.65;;;18.73;;
55063;SDS011;40963;52.168;21.296;2024-03-02T11:00:18;45.92;;;18.83;;
55063;SDS011;40963;52.168;21.296;2024-03-02T11:02:50;48.38;;;18.10;;
55063;SDS011;40963;52.168;21.296;2024-03-02T11:05:24;40.95;;;17.23;;
55063;SDS011;40963;52.168;21.296;2024-03-02T11:08:00;37.58;;;18.08;;
55063;SDS011;40963;52.168;21.296;2024-03-02T11:10:30;44.65;;;18.95;;
55063;SDS011;40963;52.168;21.296;2024-03-02T11:13:02;42.72;;;20.20;;
55063;SDS011;40963;52.168;21.296;2024-03-02T11:15:34;45.17;;;19.48;;
55063;SDS011;40963;52.168;21.296;2024-03-02T11:18:04;37.47;;;17.60;;
55063;SDS011;40963;52.168;21.296;2024-03-02T11:20:33;128.70;;;38.22;;
55063;SDS011;40963;52.168;21.296;2024-03-02T11:23:06;65.80;;;24.95;;
55063;SDS011;40963;52.168;21.296;2024-03-02T11:25:35;40.95;;;18.63;;
55063;SDS011;40963;52.168;21.296;2024-03-02T11:28:05;37.47;;;17.13;;
55063;SDS011;40963;52.168;21.296;2024-03-02T11:32:57;37.00;;;17.63;;
55063;SDS011;40963;52.168;21.296;2024-03-02T11:35:31;45.63;;;18.33;;
55063;SDS011;40963;52.168;21.296;2024-03-02T11:37:56;44.95;;;18.17;;
55063;SDS011;40963;52.168;21.296;2024-03-02T11:40:25;58.75;;;21.63;;
55063;SDS011;40963;52.168;21.296;2024-03-02T11:42:51;42.40;;;18.77;;
55063;SDS011;40963;52.168;21.296;2024-03-02T11:45:17;46.70;;;19.52;;
55063;SDS011;40963;52.168;21.296;2024-03-02T11:47:54;32.95;;;16.70;;
55063;SDS011;40963;52.168;21.296;2024-03-02T11:50:57;50.75;;;20.08;;
55063;SDS011;40963;52.168;21.296;2024-03-02T11:53:17;39.95;;;18.55;;
55063;SDS011;40963;52.168;21.296;2024-03-02T11:55:45;46.45;;;18.42;;
55063;SDS011;40963;52.168;21.296;2024-03-02T11:58:14;42.92;;;19.33;;
55063;SDS011;40963;52.168;21.296;2024-03-02T12:00:55;53.70;;;20.20;;
55063;SDS011;40963;52.168;21.296;2024-03-02T12:03:24;41.88;;;16.33;;
55063;SDS011;40963;52.168;21.296;2024-03-02T12:05:51;37.63;;;18.08;;
55063;SDS011;40963;52.168;21.296;2024-03-02T12:08:18;43.70;;;17.95;;
55063;SDS011;40963;52.168;21.296;2024-03-02T12:10:55;42.65;;;18.15;;
55063;SDS011;40963;52.168;21.296;2024-03-02T12:13:22;43.25;;;18.17;;
55063;SDS011;40963;52.168;21.296;2024-03-02T12:15:48;40.22;;;18.90;;
55063;SDS011;40963;52.168;21.296;2024-03-02T12:18:20;41.47;;;18.17;;
55063;SDS011;40963;52.168;21.296;2024-03-02T12:20:45;38.05;;;15.82;;
55063;SDS011;40963;52.168;21.296;2024-03-02T12:23:13;50.30;;;19.13;;
55063;SDS011;40963;52.168;21.296;2024-03-02T12:25:39;37.22;;;17.30;;
55063;SDS011;40963;52.168;21.296;2024-03-02T12:28:05;46.72;;;19.42;;
55063;SDS011;40963;52.168;21.296;2024-03-02T12:30:31;41.28;;;20.35;;
55063;SDS011;40963;52.168;21.296;2024-03-02T12:33:00;36.67;;;17.35;;
55063;SDS011;40963;52.168;21.296;2024-03-02T12:35:25;53.35;;;20.95;;
55063;SDS011;40963;52.168;21.296;2024-03-02T12:37:52;38.03;;;17.48;;
55063;SDS011;40963;52.168;21.296;2024-03-02T12:40:18;46.60;;;18.88;;
55063;SDS011;40963;52.168;21.296;2024-03-02T12:42:45;40.88;;;19.60;;
55063;SDS011;40963;52.168;21.296;2024-03-02T12:45:11;46.22;;;19.70;;
55063;SDS011;40963;52.168;21.296;2024-03-02T12:47:39;56.42;;;19.50;;
55063;SDS011;40963;52.168;21.296;2024-03-02T12:50:06;43.08;;;18.30;;
55063;SDS011;40963;52.168;21.296;2024-03-02T12:52:32;47.53;;;19.00;;
55063;SDS011;40963;52.168;21.296;2024-03-02T12:55:02;38.05;;;17.58;;
55063;SDS011;40963;52.168;21.296;2024-03-02T12:57:30;44.72;;;18.13;;
55063;SDS011;40963;52.168;21.296;2024-03-02T13:00:06;43.63;;;20.05;;
55063;SDS011;40963;52.168;21.296;2024-03-02T13:02:34;41.53;;;18.98;;
55063;SDS011;40963;52.168;21.296;2024-03-02T13:05:10;39.67;;;18.30;;
55063;SDS011;40963;52.168;21.296;2024-03-02T13:07:36;38.33;;;18.25;;
55063;SDS011;40963;52.168;21.296;2024-03-02T13:10:03;47.50;;;19.80;;
55063;SDS011;40963;52.168;21.296;2024-03-02T13:12:30;40.97;;;18.67;;
55063;SDS011;40963;52.168;21.296;2024-03-02T13:14:57;44.97;;;20.25;;
55063;SDS011;40963;52.168;21.296;2024-03-02T13:17:27;43.53;;;18.38;;
55063;SDS011;40963;52.168;21.296;2024-03-02T13:19:53;39.35;;;17.38;;
55063;SDS011;40963;52.168;21.296;2024-03-02T13:22:22;35.30;;;16.98;;
55063;SDS011;40963;52.168;21.296;2024-03-02T13:24:52;39.22;;;17.80;;
55063;SDS011;40963;52.168;21.296;2024-03-02T13:27:21;37.17;;;17.83;;
55063;SDS011;40963;52.168;21.296;2024-03-02T13:29:47;51.28;;;19.63;;
55063;SDS011;40963;52.168;21.296;2024-03-02T13:32:14;40.97;;;18.48;;
55063;SDS011;40963;52.168;21.296;2024-03-02T13:34:40;37.40;;;18.10;;
55063;SDS011;40963;52.168;21.296;2024-03-02T13:37:06;37.20;;;17.35;;
55063;SDS011;40963;52.168;21.296;2024-03-02T13:39:31;43.65;;;19.55;;
55063;SDS011;40963;52.168;21.296;2024-03-02T13:41:58;45.63;;;17.42;;
55063;SDS011;40963;52.168;21.296;2024-03-02T13:44:30;49.85;;;18.20;;
55063;SDS011;40963;52.168;21.296;2024-03-02T13:46:56;38.25;;;18.83;;
55063;SDS011;40963;52.168;21.296;2024-03-02T13:49:23;33.95;;;16.27;;
55063;SDS011;40963;52.168;21.296;2024-03-02T13:51:48;38.58;;;17.15;;
55063;SDS011;40963;52.168;21.296;2024-03-02T13:54:14;39.95;;;17.88;;
55063;SDS011;40963;52.168;21.296;2024-03-02T13:56:40;47.90;;;19.48;;
55063;SDS011;40963;52.168;21.296;2024-03-02T13:59:06;39.65;;;18.75;;
55063;SDS011;40963;52.168;21.296;2024-03-02T14:01:32;46.30;;;19.27;;
55063;SDS011;40963;52.168;21.296;2024-03-02T14:03:58;47.45;;;18.40;;
55063;SDS011;40963;52.168;21.296;2024-03-02T14:06:24;43.35;;;17.90;;
55063;SDS011;40963;52.168;21.296;2024-03-02T14:08:51;44.33;;;17.13;;
55063;SDS011;40963;52.168;21.296;2024-03-02T14:11:17;39.38;;;18.60;;
55063;SDS011;40963;52.168;21.296;2024-03-02T14:13:44;39.30;;;17.33;;